NY21 weather

Dewitt Heliport
Webster, New York, United States

Public forecast

Using degrees Fahrenheit for public forecast. Weather courtesy of forecast.io.

METAR (pilot weather report)

Closest report is Greater Rochester International Airport, 8.3 nm (15.3 km) SW. Retrieved 2019/05/22 06:54 UTC (9 minutes ago):

KROC 220654Z 22003KT 10SM FEW250 09/04 A3020 RMK AO2 SLP231 T00890044

TAF (pilot weather forecast)

Closest forecast is Greater Rochester International Airport, 8.3 nm (15.3 km) SW. Retrieved 2019/05/22 06:30 UTC (33 minutes ago):

TAF KROC 220527Z 2206/2306 25004KT P6SM FEW250 FM221700 11007KT P6SM BKN150 FM222000 11009KT P6SM SCT100 FM222300 12009KT P6SM BKN090 FM230200 16008KT P6SM VCSH BKN050